Time;durP1;ratioP1;P1;durP2;ratioP2;P2;SDS_P1;SDS_P2;PMS_P1;PMS_P2;Temp;Humidity;BMP_temperature;BMP_pressure;BME280_temperature;BME280_humidity;BME280_pressure;Samples;Min_cycle;Max_cycle;Signal;HPM_P1;HPM_P2
2023/10/11 00:01:42;;;;;;;44.28;23.08;;;;;;;;;;4933157;28;20035;-82
2023/10/11 00:04:23;;;;;;;45.67;22.50;;;;;;;;;;4966202;28;20035;-80
2023/10/11 00:06:50;;;;;;;48.63;23.63;;;;;;;;;;4968835;28;20042;-80
2023/10/11 00:09:18;;;;;;;43.95;22.55;;;;;;;;;;4956102;28;20069;-79
2023/10/11 00:11:45;;;;;;;42.20;22.45;;;;;;;;;;4966600;28;20035;-80
2023/10/11 00:14:13;;;;;;;49.45;24.17;;;;;;;;;;4987505;28;20023;-81
2023/10/11 00:16:40;;;;;;;50.55;23.83;;;;;;;;;;4972665;28;20042;-81
2023/10/11 00:19:09;;;;;;;51.05;23.45;;;;;;;;;;4976653;28;20027;-80
2023/10/11 00:21:40;;;;;;;52.28;25.20;;;;;;;;;;4951941;28;20448;-79
2023/10/11 00:24:07;;;;;;;51.65;25.55;;;;;;;;;;4932976;28;20073;-79
2023/10/11 00:26:40;;;;;;;51.03;25.88;;;;;;;;;;4978526;28;20547;-81
2023/10/11 00:29:09;;;;;;;54.90;26.17;;;;;;;;;;4953995;28;20093;-80
2023/10/11 00:31:35;;;;;;;52.95;27.17;;;;;;;;;;4972508;28;20023;-81
2023/10/11 00:34:03;;;;;;;60.97;27.27;;;;;;;;;;4930812;28;20053;-81
2023/10/11 00:36:30;;;;;;;55.83;26.20;;;;;;;;;;4949865;28;20031;-81
2023/10/11 00:38:56;;;;;;;53.80;26.65;;;;;;;;;;4970622;28;20114;-82
2023/10/11 00:41:42;;;;;;;58.67;27.13;;;;;;;;;;4968029;28;20523;-81
2023/10/11 00:44:08;;;;;;;58.13;27.25;;;;;;;;;;4969660;28;20523;-82
2023/10/11 00:46:56;;;;;;;53.63;26.30;;;;;;;;;;4950766;28;20038;-82
2023/10/11 00:49:23;;;;;;;49.60;26.63;;;;;;;;;;4964861;28;20054;-81
2023/10/11 00:51:50;;;;;;;58.90;27.05;;;;;;;;;;4968086;28;20035;-81
2023/10/11 00:54:17;;;;;;;72.00;29.73;;;;;;;;;;4963487;28;20408;-79
2023/10/11 00:56:45;;;;;;;54.97;28.50;;;;;;;;;;4988029;28;20038;-79
2023/10/11 00:59:14;;;;;;;65.55;28.52;;;;;;;;;;4968421;28;20021;-80
2023/10/11 01:01:44;;;;;;;57.28;28.80;;;;;;;;;;4960070;28;20059;-81
2023/10/11 01:04:12;;;;;;;55.05;29.02;;;;;;;;;;4964183;28;20023;-81
2023/10/11 01:06:38;;;;;;;67.88;28.17;;;;;;;;;;4968005;28;20201;-81
2023/10/11 01:09:28;;;;;;;51.38;27.67;;;;;;;;;;4952434;28;20034;-81
2023/10/11 01:11:54;;;;;;;58.30;27.25;;;;;;;;;;4948275;28;20121;-82
2023/10/11 01:14:23;;;;;;;53.10;26.63;;;;;;;;;;4971703;28;20030;-81
2023/10/11 01:16:51;;;;;;;55.65;24.60;;;;;;;;;;4968961;28;20155;-81
2023/10/11 01:19:21;;;;;;;56.88;25.33;;;;;;;;;;4950797;28;20062;-83
2023/10/11 01:21:53;;;;;;;46.03;24.98;;;;;;;;;;4946688;28;20039;-83
2023/10/11 01:24:20;;;;;;;54.20;25.00;;;;;;;;;;4963078;28;20023;-82
2023/10/11 01:26:48;;;;;;;56.33;24.75;;;;;;;;;;4933496;28;20165;-81
2023/10/11 01:29:14;;;;;;;49.72;24.80;;;;;;;;;;4947479;28;20530;-83
2023/10/11 01:31:41;;;;;;;57.10;24.55;;;;;;;;;;4969414;28;20050;-82
2023/10/11 01:34:13;;;;;;;49.70;25.25;;;;;;;;;;4954460;28;20046;-82
2023/10/11 01:36:40;;;;;;;52.45;25.63;;;;;;;;;;4959063;28;20484;-78
2023/10/11 01:39:11;;;;;;;48.90;23.63;;;;;;;;;;4980791;28;20031;-81
2023/10/11 01:41:42;;;;;;;54.17;24.27;;;;;;;;;;4990382;28;20031;-81
2023/10/11 01:44:08;;;;;;;53.25;23.75;;;;;;;;;;4987982;28;20031;-81
2023/10/11 01:46:43;;;;;;;52.85;24.63;;;;;;;;;;4952042;28;20023;-82
2023/10/11 01:49:12;;;;;;;52.72;24.67;;;;;;;;;;4967723;28;20178;-80
2023/10/11 01:51:39;;;;;;;54.00;23.97;;;;;;;;;;4977203;28;20027;-82
2023/10/11 01:54:09;;;;;;;55.10;25.13;;;;;;;;;;4960376;28;20281;-82
2023/10/11 01:56:37;;;;;;;49.43;24.70;;;;;;;;;;4951965;28;20114;-81
2023/10/11 01:59:05;;;;;;;54.55;25.88;;;;;;;;;;4958884;28;20130;-81
2023/10/11 02:01:38;;;;;;;50.75;25.88;;;;;;;;;;4947490;28;20023;-82
2023/10/11 02:04:29;;;;;;;58.05;27.88;;;;;;;;;;4957973;28;20773;-80
2023/10/11 02:06:56;;;;;;;54.08;26.25;;;;;;;;;;4972479;28;20060;-83
2023/10/11 02:09:23;;;;;;;49.88;26.42;;;;;;;;;;4969170;28;20046;-82
2023/10/11 02:11:52;;;;;;;55.72;27.45;;;;;;;;;;4966939;28;20125;-79
2023/10/11 02:14:22;;;;;;;59.15;27.45;;;;;;;;;;4966719;28;20109;-80
2023/10/11 02:16:48;;;;;;;52.08;27.15;;;;;;;;;;4948381;28;20031;-80
2023/10/11 02:19:18;;;;;;;55.15;28.02;;;;;;;;;;4937037;28;20039;-82
2023/10/11 02:21:45;;;;;;;62.38;30.10;;;;;;;;;;4962947;28;20019;-79
2023/10/11 02:24:15;;;;;;;62.35;29.42;;;;;;;;;;4972040;28;20046;-82
2023/10/11 02:26:49;;;;;;;59.88;29.60;;;;;;;;;;4994703;28;20042;-80
2023/10/11 02:29:22;;;;;;;50.95;29.75;;;;;;;;;;4981903;28;20088;-79
2023/10/11 02:31:52;;;;;;;63.97;30.45;;;;;;;;;;4938998;28;20073;-82
2023/10/11 02:34:18;;;;;;;57.25;29.80;;;;;;;;;;4950893;28;20034;-83
2023/10/11 02:36:46;;;;;;;60.20;28.13;;;;;;;;;;4973229;28;20129;-83
2023/10/11 02:39:22;;;;;;;57.45;31.35;;;;;;;;;;4954536;28;20031;-82
2023/10/11 02:41:57;;;;;;;59.47;29.40;;;;;;;;;;4953849;28;20035;-82
2023/10/11 02:44:23;;;;;;;50.97;28.02;;;;;;;;;;4948004;28;20058;-84
2023/10/11 02:46:50;;;;;;;51.40;28.60;;;;;;;;;;4970666;28;20051;-83
2023/10/11 02:49:19;;;;;;;53.17;29.65;;;;;;;;;;4952424;28;20134;-81
2023/10/11 02:51:59;;;;;;;55.08;27.73;;;;;;;;;;4953518;28;20031;-81
2023/10/11 02:54:38;;;;;;;59.45;29.33;;;;;;;;;;4969005;28;20488;-81
2023/10/11 03:00:00;;;;;;;61.60;30.08;;;;;;;;;;4956415;28;20043;-81
2023/10/11 03:02:29;;;;;;;59.67;29.15;;;;;;;;;;4937249;28;20027;-79
2023/10/11 03:04:59;;;;;;;57.08;28.17;;;;;;;;;;4967527;28;20031;-81
2023/10/11 03:07:27;;;;;;;55.67;28.73;;;;;;;;;;4989819;28;20083;-82
2023/10/11 03:09:54;;;;;;;59.80;29.00;;;;;;;;;;4993424;28;20036;-81
2023/10/11 03:12:30;;;;;;;54.50;29.00;;;;;;;;;;4988404;28;20034;-81
2023/10/11 03:14:56;;;;;;;59.90;28.88;;;;;;;;;;4963395;28;20039;-82
2023/10/11 03:17:22;;;;;;;55.88;29.20;;;;;;;;;;4969726;28;20058;-84
2023/10/11 03:19:54;;;;;;;61.00;28.85;;;;;;;;;;4966110;28;20068;-81
2023/10/11 03:22:20;;;;;;;50.92;27.33;;;;;;;;;;4951224;28;20106;-81
2023/10/11 03:24:53;;;;;;;50.58;27.65;;;;;;;;;;4969743;28;20049;-81
2023/10/11 03:27:24;;;;;;;53.67;27.55;;;;;;;;;;4978824;28;20129;-80
2023/10/11 03:29:53;;;;;;;50.75;27.60;;;;;;;;;;4962192;28;20038;-81
2023/10/11 03:32:19;;;;;;;57.97;27.70;;;;;;;;;;4986535;28;20027;-81
2023/10/11 03:34:45;;;;;;;51.58;26.52;;;;;;;;;;4942753;28;20054;-82
2023/10/11 03:37:18;;;;;;;48.47;25.27;;;;;;;;;;4936727;28;20053;-81
2023/10/11 03:39:54;;;;;;;48.63;25.98;;;;;;;;;;4934824;28;20039;-80
2023/10/11 03:42:21;;;;;;;47.42;25.05;;;;;;;;;;4970236;28;20023;-79
2023/10/11 03:44:47;;;;;;;49.17;24.52;;;;;;;;;;4971549;28;20034;-79
2023/10/11 03:47:14;;;;;;;49.53;25.77;;;;;;;;;;4981103;28;20031;-82
2023/10/11 03:52:30;;;;;;;48.60;24.58;;;;;;;;;;4983684;28;20038;-82
2023/10/11 03:57:35;;;;;;;43.33;23.40;;;;;;;;;;4975918;28;20026;-81
2023/10/11 04:00:24;;;;;;;45.10;24.48;;;;;;;;;;4968453;28;20069;-81
2023/10/11 04:02:48;;;;;;;45.47;24.55;;;;;;;;;;4968177;28;20034;-80
2023/10/11 04:05:17;;;;;;;46.03;23.92;;;;;;;;;;4967710;28;20035;-81
2023/10/11 04:07:43;;;;;;;48.95;23.65;;;;;;;;;;4952781;28;20109;-82
2023/10/11 04:10:19;;;;;;;43.33;23.35;;;;;;;;;;4937967;28;20466;-83
2023/10/11 04:12:45;;;;;;;49.00;24.27;;;;;;;;;;4966636;28;20035;-82
2023/10/11 04:15:24;;;;;;;46.67;24.23;;;;;;;;;;4945563;28;20156;-80
2023/10/11 04:17:50;;;;;;;45.70;24.23;;;;;;;;;;4983098;28;20019;-81
2023/10/11 04:20:18;;;;;;;38.95;23.17;;;;;;;;;;4983852;28;20043;-81
2023/10/11 04:22:51;;;;;;;42.08;23.80;;;;;;;;;;4954475;28;20026;-82
2023/10/11 04:25:23;;;;;;;40.33;22.38;;;;;;;;;;4950873;28;20031;-83
2023/10/11 04:27:56;;;;;;;44.35;24.70;;;;;;;;;;4987041;28;20039;-80
2023/10/11 04:30:41;;;;;;;44.83;23.13;;;;;;;;;;4988800;28;20038;-81
2023/10/11 04:33:11;;;;;;;38.75;22.92;;;;;;;;;;4963020;28;20578;-80
2023/10/11 04:35:38;;;;;;;48.75;23.80;;;;;;;;;;4969010;28;20018;-81
2023/10/11 04:38:05;;;;;;;47.03;24.15;;;;;;;;;;4973391;28;20174;-80
2023/10/11 04:43:07;;;;;;;45.65;25.40;;;;;;;;;;4950045;28;20046;-81
2023/10/11 04:45:46;;;;;;;51.13;26.23;;;;;;;;;;4969869;28;20043;-81
2023/10/11 04:48:18;;;;;;;52.28;25.80;;;;;;;;;;4967604;28;20117;-80
2023/10/11 04:50:50;;;;;;;44.63;25.13;;;;;;;;;;4963099;28;21501;-82
2023/10/11 04:53:17;;;;;;;50.88;26.17;;;;;;;;;;4968284;28;20035;-82
2023/10/11 04:55:46;;;;;;;46.30;26.13;;;;;;;;;;4950714;28;20046;-81
2023/10/11 04:58:38;;;;;;;47.42;25.92;;;;;;;;;;4965582;28;20557;-82
2023/10/11 05:01:02;;;;;;;50.75;27.08;;;;;;;;;;4969925;28;20043;-79
2023/10/11 05:03:30;;;;;;;53.60;28.20;;;;;;;;;;4965611;28;20046;-80
2023/10/11 05:05:59;;;;;;;55.53;27.65;;;;;;;;;;4943696;28;20109;-80
2023/10/11 05:08:51;;;;;;;51.90;27.77;;;;;;;;;;4966598;28;20114;-81
2023/10/11 05:11:25;;;;;;;61.78;29.02;;;;;;;;;;4964841;28;20030;-80
2023/10/11 05:14:10;;;;;;;55.42;27.88;;;;;;;;;;4970908;28;20073;-80
2023/10/11 05:16:38;;;;;;;52.25;27.55;;;;;;;;;;4978278;28;20023;-78
2023/10/11 05:19:06;;;;;;;57.03;29.00;;;;;;;;;;4981018;28;20193;-78
2023/10/11 05:21:38;;;;;;;57.97;27.70;;;;;;;;;;4977187;28;20031;-80
2023/10/11 05:24:27;;;;;;;61.53;28.08;;;;;;;;;;4957533;28;20026;-80
2023/10/11 05:27:04;;;;;;;61.95;30.90;;;;;;;;;;4951008;28;20034;-79
2023/10/11 05:29:36;;;;;;;56.83;28.85;;;;;;;;;;4974152;28;20035;-78
2023/10/11 05:32:27;;;;;;;60.53;30.48;;;;;;;;;;4971999;28;20108;-79
2023/10/11 05:51:48;;;;;;;64.47;31.38;;;;;;;;;;4962777;28;20099;-78
2023/10/11 05:54:16;;;;;;;77.65;32.45;;;;;;;;;;4968093;28;20085;-77
2023/10/11 05:56:47;;;;;;;70.18;32.58;;;;;;;;;;4958959;28;20106;-78
2023/10/11 05:59:14;;;;;;;60.38;31.65;;;;;;;;;;4960184;28;20097;-77
2023/10/11 06:08:15;;;;;;;60.13;31.83;;;;;;;;;;4914601;29;20044;-79
2023/10/11 06:10:42;;;;;;;65.35;33.40;;;;;;;;;;4913895;29;20572;-79
2023/10/11 06:13:13;;;;;;;60.60;32.08;;;;;;;;;;4918671;29;20024;-78
2023/10/11 06:15:58;;;;;;;66.78;33.85;;;;;;;;;;4911226;29;20036;-79
2023/10/11 06:24:03;;;;;;;65.53;31.67;;;;;;;;;;4913423;29;20036;-80
2023/10/11 06:26:29;;;;;;;78.93;32.83;;;;;;;;;;4893541;29;20111;-79
2023/10/11 06:29:07;;;;;;;66.80;32.25;;;;;;;;;;4910803;29;20079;-78
2023/10/11 06:31:39;;;;;;;77.25;31.80;;;;;;;;;;4910070;29;20044;-77
2023/10/11 06:34:15;;;;;;;62.83;31.15;;;;;;;;;;4921024;29;20027;-79
2023/10/11 06:36:48;;;;;;;59.03;30.27;;;;;;;;;;4930422;29;20062;-79
2023/10/11 06:42:06;;;;;;;78.20;30.88;;;;;;;;;;4919796;29;20051;-80
2023/10/11 06:44:33;;;;;;;69.65;31.88;;;;;;;;;;4902916;29;20063;-80
2023/10/11 06:47:03;;;;;;;58.97;30.95;;;;;;;;;;4912631;29;20055;-79
2023/10/11 06:49:40;;;;;;;73.85;31.70;;;;;;;;;;4930647;29;20123;-79
2023/10/11 06:52:11;;;;;;;62.22;29.50;;;;;;;;;;4920865;29;20480;-80
2023/10/11 06:54:38;;;;;;;69.50;31.00;;;;;;;;;;4912378;29;20091;-79
2023/10/11 06:57:07;;;;;;;64.93;30.58;;;;;;;;;;4896879;29;20040;-81
2023/10/11 06:59:33;;;;;;;77.40;30.95;;;;;;;;;;4923261;29;20041;-80
2023/10/11 07:02:00;;;;;;;56.40;29.73;;;;;;;;;;4924104;29;20012;-80
2023/10/11 07:04:36;;;;;;;60.38;28.92;;;;;;;;;;4889802;29;20028;-80
2023/10/11 07:07:07;;;;;;;59.97;28.20;;;;;;;;;;4920684;29;20149;-82
2023/10/11 07:09:39;;;;;;;84.53;29.48;;;;;;;;;;4927523;29;20064;-79
2023/10/11 07:14:50;;;;;;;65.28;28.60;;;;;;;;;;4914248;29;20166;-79
2023/10/11 07:17:23;;;;;;;68.32;29.98;;;;;;;;;;4918212;29;20028;-79
2023/10/11 07:19:53;;;;;;;58.97;28.85;;;;;;;;;;4941991;29;20473;-79
2023/10/11 07:22:22;;;;;;;63.25;28.27;;;;;;;;;;4939593;29;20050;-79
2023/10/11 07:24:55;;;;;;;67.90;28.05;;;;;;;;;;4930062;29;20434;-79
2023/10/11 07:27:37;;;;;;;59.15;27.92;;;;;;;;;;4930915;29;20071;-79
2023/10/11 07:30:16;;;;;;;58.15;27.08;;;;;;;;;;4930919;29;20067;-78
2023/10/11 07:32:42;;;;;;;79.32;29.77;;;;;;;;;;4896591;29;20038;-77
2023/10/11 07:35:27;;;;;;;44.03;24.75;;;;;;;;;;4932104;29;20091;-78
2023/10/11 07:37:53;;;;;;;58.65;26.67;;;;;;;;;;4928437;29;20036;-79
2023/10/11 07:40:31;;;;;;;54.13;27.05;;;;;;;;;;4929195;29;20111;-79
2023/10/11 07:42:57;;;;;;;55.67;28.10;;;;;;;;;;4931907;29;20036;-78
2023/10/11 07:45:26;;;;;;;57.33;27.48;;;;;;;;;;4932417;29;20063;-78
2023/10/11 07:47:53;;;;;;;54.38;26.23;;;;;;;;;;4930968;29;20036;-78
2023/10/11 07:50:22;;;;;;;68.07;27.98;;;;;;;;;;4913873;29;20486;-78
2023/10/11 07:52:49;;;;;;;61.10;27.17;;;;;;;;;;4931795;29;20545;-77
2023/10/11 07:55:17;;;;;;;64.82;26.33;;;;;;;;;;4914003;29;20062;-78
2023/10/11 07:57:46;;;;;;;65.20;27.02;;;;;;;;;;4934311;29;20028;-81
2023/10/11 08:00:17;;;;;;;62.15;27.63;;;;;;;;;;4919648;29;20357;-80
2023/10/11 08:02:43;;;;;;;;;;;;;;;;;;4930758;29;20034;-84
2023/10/11 08:05:14;;;;;;;65.70;27.23;;;;;;;;;;4941120;29;20403;-86
2023/10/11 08:07:40;;;;;;;65.20;29.30;;;;;;;;;;4917091;29;20076;-79
2023/10/11 08:13:14;;;;;;;65.05;27.65;;;;;;;;;;4918461;29;20046;-80
2023/10/11 08:15:43;;;;;;;65.57;29.15;;;;;;;;;;4930669;29;20477;-79
2023/10/11 08:18:09;;;;;;;75.05;30.73;;;;;;;;;;4932307;29;20091;-79
2023/10/11 08:20:36;;;;;;;65.10;29.38;;;;;;;;;;4930355;29;20131;-79
2023/10/11 08:23:08;;;;;;;65.65;29.33;;;;;;;;;;4913269;29;20068;-79
2023/10/11 08:25:39;;;;;;;69.07;28.45;;;;;;;;;;4932351;29;20126;-78
2023/10/11 08:28:19;;;;;;;72.03;29.73;;;;;;;;;;4916600;29;20032;-78
2023/10/11 08:30:45;;;;;;;72.32;29.40;;;;;;;;;;4931993;29;20134;-80
2023/10/11 08:33:13;;;;;;;62.38;29.48;;;;;;;;;;4931067;29;20126;-82
2023/10/11 08:35:46;;;;;;;71.38;29.58;;;;;;;;;;4926118;29;20036;-81
2023/10/11 08:38:16;;;;;;;64.07;29.60;;;;;;;;;;4947148;29;20035;-82
2023/10/11 08:40:43;;;;;;;69.93;29.65;;;;;;;;;;4953505;28;20035;-81
2023/10/11 08:43:09;;;;;;;65.40;30.58;;;;;;;;;;4930964;29;20047;-81
2023/10/11 08:45:49;;;;;;;71.60;32.03;;;;;;;;;;4933389;29;20039;-81
2023/10/11 08:48:17;;;;;;;73.88;32.95;;;;;;;;;;4930215;29;20035;-81
2023/10/11 08:50:52;;;;;;;63.95;30.83;;;;;;;;;;4935977;29;20044;-80
2023/10/11 08:53:22;;;;;;;69.78;31.45;;;;;;;;;;4913861;29;20032;-81
2023/10/11 08:55:56;;;;;;;75.72;31.55;;;;;;;;;;4930552;29;20036;-79
2023/10/11 08:58:29;;;;;;;60.33;25.90;;;;;;;;;;4914357;29;20521;-80
2023/10/11 09:00:55;;;;;;;53.95;22.52;;;;;;;;;;4930052;29;20043;-79
2023/10/11 09:03:31;;;;;;;51.72;20.45;;;;;;;;;;4929854;29;20058;-81
2023/10/11 09:06:01;;;;;;;52.63;19.75;;;;;;;;;;4932172;29;20314;-78
2023/10/11 09:08:31;;;;;;;42.95;17.70;;;;;;;;;;4932766;29;20039;-82
2023/10/11 09:11:11;;;;;;;34.55;15.73;;;;;;;;;;4931907;29;20038;-81
2023/10/11 09:13:37;;;;;;;33.35;14.90;;;;;;;;;;4930244;28;20355;-81
2023/10/11 09:16:13;;;;;;;33.90;14.00;;;;;;;;;;4931357;29;20597;-82
2023/10/11 09:18:39;;;;;;;30.65;14.20;;;;;;;;;;4915557;29;20099;-84
2023/10/11 09:21:18;;;;;;;26.75;12.70;;;;;;;;;;4914009;29;20036;-81
2023/10/11 09:23:49;;;;;;;26.20;12.57;;;;;;;;;;4932554;29;20068;-81
2023/10/11 09:26:23;;;;;;;28.75;12.80;;;;;;;;;;4921747;29;20036;-80
2023/10/11 09:29:02;;;;;;;36.38;14.75;;;;;;;;;;4944750;29;20067;-80
2023/10/11 09:31:32;;;;;;;40.97;15.43;;;;;;;;;;4939007;29;20044;-80
2023/10/11 09:34:05;;;;;;;50.60;18.88;;;;;;;;;;4932524;29;20035;-80
2023/10/11 09:36:31;;;;;;;54.55;20.95;;;;;;;;;;4915682;29;20031;-81
2023/10/11 09:38:59;;;;;;;51.78;21.08;;;;;;;;;;4930354;29;20058;-81
2023/10/11 09:41:26;;;;;;;48.15;19.60;;;;;;;;;;4930088;29;20035;-83
2023/10/11 09:43:59;;;;;;;39.22;17.60;;;;;;;;;;4926554;29;20048;-80
2023/10/11 09:46:31;;;;;;;54.92;17.45;;;;;;;;;;4927774;29;20116;-80
2023/10/11 09:49:00;;;;;;;30.67;14.40;;;;;;;;;;4931687;29;20308;-79
2023/10/11 09:51:26;;;;;;;29.92;12.48;;;;;;;;;;4928904;29;20124;-79
2023/10/11 09:53:53;;;;;;;25.73;11.65;;;;;;;;;;4932567;29;20226;-79
2023/10/11 09:56:22;;;;;;;23.83;10.90;;;;;;;;;;4913253;29;20107;-80
2023/10/11 09:58:54;;;;;;;21.02;10.60;;;;;;;;;;4930181;29;20118;-79
2023/10/11 10:01:38;;;;;;;20.70;10.48;;;;;;;;;;4926386;29;20039;-81
2023/10/11 10:04:09;;;;;;;51.28;17.48;;;;;;;;;;4929962;29;20044;-80
2023/10/11 10:06:35;;;;;;;38.60;15.27;;;;;;;;;;4918985;29;20065;-79
2023/10/11 10:09:16;;;;;;;52.13;16.20;;;;;;;;;;4937248;29;20042;-78
2023/10/11 10:11:42;;;;;;;;;;;;;;;;;;4939240;29;20024;-78
2023/10/11 10:14:25;;;;;;;29.95;12.63;;;;;;;;;;4919246;29;20297;-80
2023/10/11 10:17:10;;;;;;;26.15;10.30;;;;;;;;;;4923796;29;20111;-80
2023/10/11 10:19:39;;;;;;;23.95;9.00;;;;;;;;;;4928794;29;20042;-79
2023/10/11 10:22:16;;;;;;;23.52;8.77;;;;;;;;;;4928748;29;20413;-80
2023/10/11 10:24:43;;;;;;;21.75;9.20;;;;;;;;;;4929219;29;20031;-79
2023/10/11 10:27:33;;;;;;;31.73;8.65;;;;;;;;;;4930117;29;20039;-80
2023/10/11 10:30:07;;;;;;;17.30;8.33;;;;;;;;;;4931113;29;20043;-80
2023/10/11 10:32:34;;;;;;;22.42;7.82;;;;;;;;;;4918783;29;20831;-79
2023/10/11 10:35:36;;;;;;;18.92;8.80;;;;;;;;;;4928329;29;20114;-77
2023/10/11 10:38:05;;;;;;;23.95;7.88;;;;;;;;;;4924321;29;20043;-80
2023/10/11 10:40:37;;;;;;;31.20;8.55;;;;;;;;;;4930008;29;20028;-79
2023/10/11 10:43:14;;;;;;;45.30;8.32;;;;;;;;;;4918606;29;20357;-80
2023/10/11 10:45:40;;;;;;;20.80;8.13;;;;;;;;;;4915122;29;20835;-81
2023/10/11 10:48:16;;;;;;;21.40;7.15;;;;;;;;;;4923437;29;20024;-80
2023/10/11 10:50:49;;;;;;;24.73;8.52;;;;;;;;;;4934433;29;20031;-78
2023/10/11 10:53:15;;;;;;;32.90;13.43;;;;;;;;;;4932604;29;20044;-79
2023/10/11 10:55:43;;;;;;;37.90;11.57;;;;;;;;;;4946666;29;20063;-80
2023/10/11 10:58:15;;;;;;;25.15;10.43;;;;;;;;;;4945673;29;20039;-78
2023/10/11 11:00:43;;;;;;;34.17;10.73;;;;;;;;;;4933616;29;20031;-80
2023/10/11 11:03:19;;;;;;;29.77;10.05;;;;;;;;;;4934299;29;20059;-79
2023/10/11 11:05:55;;;;;;;33.03;9.52;;;;;;;;;;4932459;29;20131;-78
2023/10/11 11:08:27;;;;;;;26.77;9.68;;;;;;;;;;4933526;29;20036;-79
2023/10/11 11:11:27;;;;;;;27.75;9.13;;;;;;;;;;4932262;29;20043;-79
2023/10/11 11:13:56;;;;;;;28.67;7.60;;;;;;;;;;4929541;29;20032;-80
2023/10/11 11:16:29;;;;;;;15.32;6.03;;;;;;;;;;4921343;29;20281;-79
2023/10/11 11:19:01;;;;;;;34.00;5.97;;;;;;;;;;4917037;29;20047;-80
2023/10/11 11:21:32;;;;;;;19.40;5.95;;;;;;;;;;4932084;29;20122;-79
2023/10/11 11:24:14;;;;;;;17.90;6.80;;;;;;;;;;4933252;29;20032;-79
2023/10/11 11:26:41;;;;;;;29.15;6.95;;;;;;;;;;4932603;29;20036;-80
2023/10/11 11:29:16;;;;;;;18.55;6.20;;;;;;;;;;4924864;29;20071;-80
2023/10/11 11:31:51;;;;;;;25.40;6.28;;;;;;;;;;4917191;29;20184;-79
2023/10/11 11:34:26;;;;;;;29.75;6.82;;;;;;;;;;4940823;29;20038;-80
2023/10/11 11:36:56;;;;;;;39.45;8.02;;;;;;;;;;4949863;29;20060;-80
2023/10/11 11:39:36;;;;;;;14.88;6.03;;;;;;;;;;4945474;29;20461;-79
2023/10/11 11:42:18;;;;;;;44.33;8.25;;;;;;;;;;4942608;29;20099;-80
2023/10/11 11:44:46;;;;;;;35.33;6.32;;;;;;;;;;4948201;29;20031;-79
2023/10/11 11:47:21;;;;;;;16.83;5.90;;;;;;;;;;4961875;29;20027;-79
2023/10/11 11:49:47;;;;;;;32.33;6.45;;;;;;;;;;4944090;29;20047;-80
2023/10/11 11:52:19;;;;;;;14.30;6.18;;;;;;;;;;4931926;29;20031;-78
2023/10/11 11:54:47;;;;;;;22.00;6.05;;;;;;;;;;4927378;29;20051;-79
2023/10/11 11:57:13;;;;;;;25.38;6.00;;;;;;;;;;4919850;29;20090;-79
2023/10/11 11:59:41;;;;;;;14.15;5.65;;;;;;;;;;4932802;29;20040;-78
2023/10/11 12:02:16;;;;;;;23.48;6.25;;;;;;;;;;4922998;29;20032;-80
2023/10/11 12:04:44;;;;;;;18.73;6.07;;;;;;;;;;4932603;29;20032;-81
2023/10/11 12:07:11;;;;;;;15.85;5.45;;;;;;;;;;4933327;29;20103;-80
2023/10/11 12:09:38;;;;;;;25.58;5.63;;;;;;;;;;4934999;29;20062;-80
2023/10/11 12:12:05;;;;;;;22.55;5.47;;;;;;;;;;4937027;29;20035;-77
2023/10/11 12:14:39;;;;;;;54.85;6.80;;;;;;;;;;4931885;29;20022;-80
2023/10/11 12:17:11;;;;;;;15.60;5.30;;;;;;;;;;4947680;29;20123;-79
2023/10/11 12:19:38;;;;;;;12.45;4.85;;;;;;;;;;4933527;29;20083;-81
2023/10/11 12:22:05;;;;;;;25.30;4.88;;;;;;;;;;4931816;29;20122;-79
2023/10/11 12:24:32;;;;;;;33.47;6.40;;;;;;;;;;4914742;29;20449;-80
2023/10/11 12:26:58;;;;;;;12.57;5.03;;;;;;;;;;4931543;29;20083;-81
2023/10/11 12:29:26;;;;;;;16.80;5.18;;;;;;;;;;4929428;29;20039;-80
2023/10/11 12:31:54;;;;;;;18.40;5.75;;;;;;;;;;4930638;29;20054;-79
2023/10/11 12:34:24;;;;;;;15.30;5.07;;;;;;;;;;4929476;29;20038;-82
2023/10/11 12:36:54;;;;;;;22.92;5.78;;;;;;;;;;4929426;29;20096;-79
2023/10/11 12:39:20;;;;;;;17.77;5.90;;;;;;;;;;4931204;29;20348;-82
2023/10/11 12:41:55;;;;;;;24.23;7.18;;;;;;;;;;4930380;29;20039;-81
2023/10/11 12:44:22;;;;;;;19.80;6.18;;;;;;;;;;4929082;29;20489;-80
2023/10/11 12:46:50;;;;;;;22.92;5.82;;;;;;;;;;4930718;29;20040;-79
2023/10/11 12:49:19;;;;;;;32.28;6.85;;;;;;;;;;4930389;29;20626;-78
2023/10/11 12:51:46;;;;;;;37.67;7.18;;;;;;;;;;4930355;29;20087;-78
2023/10/11 12:54:13;;;;;;;26.42;7.47;;;;;;;;;;4924517;29;20059;-81
2023/10/11 12:56:41;;;;;;;19.88;7.80;;;;;;;;;;4947191;29;20102;-78
2023/10/11 12:59:12;;;;;;;25.13;7.88;;;;;;;;;;4937945;29;20063;-81
2023/10/11 13:01:49;;;;;;;21.17;7.57;;;;;;;;;;4928364;29;20048;-77
2023/10/11 13:04:23;;;;;;;32.63;8.02;;;;;;;;;;4927258;29;20101;-81
2023/10/11 13:06:50;;;;;;;19.15;7.60;;;;;;;;;;4928317;29;20047;-80
2023/10/11 13:09:21;;;;;;;18.75;7.55;;;;;;;;;;4913932;29;20035;-82
2023/10/11 13:11:47;;;;;;;29.67;8.63;;;;;;;;;;4929675;29;20044;-79
2023/10/11 13:14:20;;;;;;;23.65;8.27;;;;;;;;;;4929501;29;20056;-80
2023/10/11 13:16:48;;;;;;;20.50;8.73;;;;;;;;;;4928789;29;20577;-80
2023/10/11 13:19:17;;;;;;;18.73;8.25;;;;;;;;;;4929412;28;20276;-81
2023/10/11 13:21:47;;;;;;;37.30;10.70;;;;;;;;;;4926229;29;20086;-80
2023/10/11 13:24:22;;;;;;;29.23;10.23;;;;;;;;;;4928344;29;20050;-81
2023/10/11 13:26:52;;;;;;;25.58;10.35;;;;;;;;;;4926408;29;20035;-79
2023/10/11 13:29:18;;;;;;;37.57;10.27;;;;;;;;;;4931000;29;20930;-78
2023/10/11 13:31:46;;;;;;;34.10;11.23;;;;;;;;;;4929438;29;20040;-78
2023/10/11 13:34:14;;;;;;;27.13;11.90;;;;;;;;;;4929524;29;20051;-79
2023/10/11 13:36:43;;;;;;;24.63;11.23;;;;;;;;;;4941783;29;20150;-81
2023/10/11 13:39:25;;;;;;;30.02;11.68;;;;;;;;;;4948305;29;20027;-78
2023/10/11 13:41:54;;;;;;;28.52;12.43;;;;;;;;;;4937196;29;20497;-78
2023/10/11 13:44:24;;;;;;;32.97;12.38;;;;;;;;;;4933388;29;20031;-78
2023/10/11 13:46:51;;;;;;;32.33;12.52;;;;;;;;;;4934830;29;20059;-80
2023/10/11 13:49:24;;;;;;;28.60;14.80;;;;;;;;;;4929754;29;20477;-78
2023/10/11 13:51:51;;;;;;;68.65;16.02;;;;;;;;;;4928642;29;20071;-78
2023/10/11 13:54:31;;;;;;;31.08;13.95;;;;;;;;;;4909663;29;20039;-79
2023/10/11 13:56:58;;;;;;;36.25;14.63;;;;;;;;;;4928352;29;20044;-78
2023/10/11 13:59:25;;;;;;;37.35;14.45;;;;;;;;;;4927548;29;20035;-79
2023/10/11 14:07:54;;;;;;;36.85;16.00;;;;;;;;;;4929258;29;20155;-78
2023/10/11 14:09:57;;;;;;;39.00;17.73;;;;;;;;;;4925284;29;20138;-81
2023/10/11 14:12:29;;;;;;;41.55;18.10;;;;;;;;;;4926120;29;20071;-80
2023/10/11 14:14:55;;;;;;;38.40;18.10;;;;;;;;;;4929125;29;20062;-78
2023/10/11 14:17:24;;;;;;;37.83;18.15;;;;;;;;;;4934531;29;20036;-79
2023/10/11 14:19:51;;;;;;;40.80;18.30;;;;;;;;;;4931160;29;20056;-78
2023/10/11 14:22:18;;;;;;;41.63;17.65;;;;;;;;;;4953147;29;20044;-79
2023/10/11 14:24:44;;;;;;;38.30;18.05;;;;;;;;;;4922538;29;20039;-80
2023/10/11 14:27:11;;;;;;;44.63;18.35;;;;;;;;;;4932492;29;20054;-81
2023/10/11 14:29:37;;;;;;;36.25;18.60;;;;;;;;;;4940631;29;20032;-81
2023/10/11 14:32:03;;;;;;;38.47;18.75;;;;;;;;;;4929544;29;20051;-80
2023/10/11 14:34:30;;;;;;;50.08;18.35;;;;;;;;;;4943518;29;20134;-80
2023/10/11 14:36:56;;;;;;;65.55;19.85;;;;;;;;;;4920244;29;20023;-79
2023/10/11 14:39:23;;;;;;;48.47;19.30;;;;;;;;;;4936463;29;20126;-79
2023/10/11 14:41:55;;;;;;;43.20;20.67;;;;;;;;;;4941329;29;20027;-80
2023/10/11 14:44:22;;;;;;;40.35;19.73;;;;;;;;;;4929146;29;20100;-81
2023/10/11 14:46:49;;;;;;;35.80;19.52;;;;;;;;;;4951813;29;20024;-79
2023/10/11 14:49:20;;;;;;;36.67;19.05;;;;;;;;;;4937783;29;20051;-79
2023/10/11 14:51:46;;;;;;;39.30;20.42;;;;;;;;;;4942144;29;20185;-80
2023/10/11 14:54:12;;;;;;;41.15;21.25;;;;;;;;;;4938573;29;20602;-79
2023/10/11 14:56:38;;;;;;;50.38;20.77;;;;;;;;;;4936495;29;20051;-80
2023/10/11 14:59:04;;;;;;;35.03;21.52;;;;;;;;;;4944270;29;20520;-79
2023/10/11 15:01:33;;;;;;;81.72;22.25;;;;;;;;;;4946458;29;20032;-80
2023/10/11 15:04:12;;;;;;;37.55;20.10;;;;;;;;;;4936445;29;20012;-80
2023/10/11 15:06:39;;;;;;;45.00;20.95;;;;;;;;;;4933812;29;20055;-79
2023/10/11 15:09:08;;;;;;;66.78;20.83;;;;;;;;;;4948050;29;20047;-80
2023/10/11 15:11:35;;;;;;;38.53;20.98;;;;;;;;;;4934645;29;20040;-79
2023/10/11 15:14:07;;;;;;;44.97;20.67;;;;;;;;;;4935024;29;20039;-79
2023/10/11 15:16:34;;;;;;;37.85;20.67;;;;;;;;;;4935721;29;20039;-80
2023/10/11 15:19:01;;;;;;;48.85;21.60;;;;;;;;;;4934594;29;20105;-80
2023/10/11 15:21:28;;;;;;;46.67;20.80;;;;;;;;;;4915806;29;20058;-78
2023/10/11 15:23:55;;;;;;;48.70;20.90;;;;;;;;;;4927525;29;20086;-80
2023/10/11 15:26:21;;;;;;;53.70;22.60;;;;;;;;;;4936476;29;20032;-79
2023/10/11 15:28:51;;;;;;;52.08;22.48;;;;;;;;;;4916313;29;20032;-80
2023/10/11 15:31:19;;;;;;;52.63;23.90;;;;;;;;;;4918149;29;20036;-80
2023/10/11 15:33:46;;;;;;;55.45;24.63;;;;;;;;;;4916060;29;20137;-80
2023/10/11 15:36:14;;;;;;;45.63;26.52;;;;;;;;;;4934841;29;20041;-80